Lloydminster Airport
CYLL : now visible

Airfield :











YOU CAN JOIN US ON...

 
LOGIN :

Register | Disclaimer

   EN    FR    IT 

 









Legend :    VFR   Marginal VFR   IFR   Intensive IFR   Very Intensive IFR
Visi :
Ceiling :
>= 8 km
>= 3000ft
5 to 8 km
1000 to 3000 ft
1500m to 5 km
500 to 1000 ft
800 to 1500m
200 to 500 ft
< 800m
< 200 ft
Symbols :   Thunderstorms  Fog  Heavy snow  Heavy precipitations  Wind > 20 kt






- Airport Elevation : 2193 ft
- IATA code : YLL


CYLL - Lloydminster

CURRENT METAR :
  • 291328Z AUTO 20005KT 6SM BR SCT001 M16/M18 A2999 RMK SLP211

EXPIRED METARs :
  • 291313Z AUTO 17005KT 2SM -SN BKN001 M16/M18 A2999 RMK VIS VRB 1-3 PRESFR SLP212
  • 291307Z AUTO 17004KT 4SM BR SCT001 M16/M18 A2999 RMK PRESFR SLP213
  • 291200Z AUTO 22003KT 7SM CLR M16/M18 A3003 RMK SLP223
  • 291127Z AUTO 16002KT 6SM BR FEW001 M15/M17 A3002 RMK SLP220
  • 291119Z AUTO 16003KT 3/4SM BR SCT001 M15/M17 A3002 RMK SLP220
  • 291109Z AUTO 14004KT 1/2SM FZFG BKN001 M15/M17 A3002 RMK SLP221
  • 291105Z AUTO 14003KT 5/8SM BR VV001 M15/M17 A3002 RMK SLP221
  • 291038Z AUTO 26002KT 1/2SM FZFG BKN001 M14/M16 A3003 RMK SLP222

TAF TAF CYLL
Valid from the 29 at 12:00 until the 30 at 00:00 UTC


291140Z 2912/2924 VRB03KT 1/4SM FZFG BKN001
TEMPO 2912/2918 6SM BR SCT001
FM291800 16012KT P6SM SCT004
TEMPO 2918/2920 2SM BR BKN004
FM292200 16015G25KT P6SM SCT200 RMK FCST BASED ON AUTO OBS. NXT FCST BY 291800Z



MET'MAP, your aeronautical weather chart ! - Copyright ORBIFLY December 2007 - Disclaimer

ORBIFLY MET'MAP TEAM :

Programming & Development : Alexandra Zaïnal
Concept & original design : Baudouin d'Aumeries
Assistance for programming : Marc-Olivier Méhu
Technical & hardware support : Manuel Goepfert

Contact : metmap@orbifly.com




SOURCES & CREDITS :

   NOAA       Earth
Advisory